Time;durP1;ratioP1;P1;durP2;ratioP2;P2;SDS_P1;SDS_P2;PMS_P1;PMS_P2;Temp;Humidity;BMP_temperature;BMP_pressure;BME280_temperature;BME280_humidity;BME280_pressure;Samples;Min_cycle;Max_cycle;Signal;HPM_P1;HPM_P2
2021/12/01 00:00:27;;;;;;;0.10;0.10;;;5.50;99.90;;;;;;4995463;28;20034;-72
2021/12/01 00:02:54;;;;;;;0.00;0.00;;;5.40;99.90;;;;;;4996380;28;20062;-72
2021/12/01 00:05:24;;;;;;;2.40;1.10;;;5.30;99.90;;;;;;4995462;28;20030;-71
2021/12/01 00:07:51;;;;;;;0.20;0.20;;;5.20;99.90;;;;;;4995346;28;20033;-72
2021/12/01 00:10:19;;;;;;;0.00;0.00;;;5.20;99.90;;;;;;4995643;28;20034;-72
2021/12/01 00:12:45;;;;;;;0.10;0.10;;;5.20;99.90;;;;;;4996138;28;20389;-72
2021/12/01 00:15:11;;;;;;;0.00;0.00;;;5.10;99.90;;;;;;4995105;28;20133;-72
2021/12/01 00:17:37;;;;;;;0.00;0.00;;;5.10;99.90;;;;;;4996183;28;20535;-72
2021/12/01 00:20:08;;;;;;;0.00;0.00;;;5.00;99.90;;;;;;4996438;28;20439;-72
2021/12/01 00:22:34;;;;;;;0.23;0.23;;;5.00;99.90;;;;;;4995130;28;20495;-71
2021/12/01 00:25:00;;;;;;;0.10;0.10;;;5.10;99.90;;;;;;4996024;28;20300;-71
2021/12/01 00:27:25;;;;;;;0.00;0.00;;;5.00;99.90;;;;;;4996098;28;20085;-71
2021/12/01 00:29:51;;;;;;;0.30;0.30;;;5.10;99.90;;;;;;4994904;28;20034;-72
2021/12/01 00:32:18;;;;;;;0.10;0.10;;;5.00;99.90;;;;;;4996309;28;20106;-72
2021/12/01 00:34:45;;;;;;;0.05;0.05;;;5.10;99.90;;;;;;4995729;28;20047;-71
2021/12/01 00:37:11;;;;;;;0.00;0.00;;;5.10;99.90;;;;;;4995887;28;20491;-72
2021/12/01 00:39:36;;;;;;;0.08;0.08;;;5.20;99.90;;;;;;4994357;28;20031;-71
2021/12/01 00:42:02;;;;;;;0.00;0.00;;;5.20;99.90;;;;;;4995973;28;20080;-72
2021/12/01 00:44:30;;;;;;;0.00;0.00;;;5.30;99.90;;;;;;4993800;28;20518;-71
2021/12/01 00:49:34;;;;;;;0.00;0.00;;;5.50;99.90;;;;;;4994920;28;20030;-71
2021/12/01 00:52:01;;;;;;;;;;;5.40;99.90;;;;;;4993720;28;20042;-72
2021/12/01 00:54:27;;;;;;;0.43;0.43;;;5.40;99.90;;;;;;4993261;28;19920;-72
2021/12/01 00:56:53;;;;;;;1.45;1.00;;;5.40;99.90;;;;;;4994297;28;20148;-72
2021/12/01 00:59:19;;;;;;;0.10;0.10;;;5.30;99.90;;;;;;4993094;28;20440;-71
2021/12/01 01:01:46;;;;;;;0.08;0.08;;;5.30;99.90;;;;;;4992595;28;20438;-73
2021/12/01 01:04:16;;;;;;;0.00;0.00;;;5.20;99.90;;;;;;4993045;28;20099;-72
2021/12/01 01:06:43;;;;;;;0.10;0.10;;;5.20;99.90;;;;;;4993069;28;20030;-73
2021/12/01 01:09:10;;;;;;;0.00;0.00;;;5.20;99.90;;;;;;4976951;28;20483;-72
2021/12/01 01:17:10;;;;;;;0.00;0.00;;;5.20;99.90;;;;;;4992971;28;20041;-72
2021/12/01 01:19:38;;;;;;;0.32;0.22;;;5.20;99.90;;;;;;4993154;28;20118;-71
2021/12/01 01:22:07;;;;;;;1.73;0.75;;;5.10;99.90;;;;;;4994130;28;20035;-72
2021/12/01 01:24:36;;;;;;;0.10;0.10;;;5.10;99.90;;;;;;4992870;28;20033;-72
2021/12/01 01:27:03;;;;;;;0.05;0.05;;;5.10;99.90;;;;;;4994280;28;20034;-72
2021/12/01 01:29:33;;;;;;;0.10;0.10;;;5.10;99.90;;;;;;4992765;28;20035;-72
2021/12/01 01:31:59;;;;;;;0.10;0.10;;;5.10;99.90;;;;;;4993021;28;20041;-72
2021/12/01 01:34:26;;;;;;;0.20;0.20;;;5.10;99.90;;;;;;4993803;28;20038;-72
2021/12/01 01:36:52;;;;;;;0.98;0.98;;;5.10;99.90;;;;;;4994068;28;20030;-72
2021/12/01 01:39:19;;;;;;;0.00;0.00;;;5.10;99.90;;;;;;4992838;28;20113;-72
2021/12/01 01:41:45;;;;;;;0.00;0.00;;;5.10;99.90;;;;;;4993774;28;20034;-72
2021/12/01 01:44:12;;;;;;;0.00;0.00;;;5.00;99.90;;;;;;4942619;28;1490124;-72
2021/12/01 01:46:40;;;;;;;0.10;0.10;;;5.00;99.90;;;;;;4994853;28;20034;-71
2021/12/01 01:49:57;;;;;;;0.05;0.05;;;5.00;99.90;;;;;;4993377;28;20375;-71
2021/12/01 01:51:57;;;;;;;0.10;0.10;;;5.00;99.90;;;;;;4995712;28;20415;-72
2021/12/01 01:54:23;;;;;;;0.00;0.00;;;5.00;99.90;;;;;;4977018;28;20038;-72
2021/12/01 01:56:49;;;;;;;0.05;0.05;;;5.00;99.90;;;;;;4993465;28;20041;-72
2021/12/01 01:59:14;;;;;;;0.55;0.55;;;5.00;99.90;;;;;;4994541;28;20034;-72
2021/12/01 02:01:46;;;;;;;0.10;0.10;;;5.00;99.90;;;;;;4994063;28;20030;-72
2021/12/01 02:04:18;;;;;;;0.00;0.00;;;5.00;99.90;;;;;;4993602;28;20041;-71
2021/12/01 02:06:47;;;;;;;0.00;0.00;;;5.00;99.90;;;;;;4993272;28;20085;-72
2021/12/01 02:09:15;;;;;;;0.10;0.10;;;5.00;99.90;;;;;;4994303;28;20069;-72
2021/12/01 02:11:41;;;;;;;0.10;0.10;;;5.00;99.90;;;;;;4993058;28;20108;-72
2021/12/01 02:14:07;;;;;;;0.20;0.20;;;5.00;99.90;;;;;;4993311;28;20391;-72
2021/12/01 02:16:35;;;;;;;0.17;0.17;;;5.00;99.90;;;;;;4992861;28;20031;-72
2021/12/01 02:19:01;;;;;;;0.45;0.45;;;5.00;99.90;;;;;;4994306;28;20058;-72
2021/12/01 02:21:29;;;;;;;0.22;0.22;;;5.00;99.90;;;;;;4992913;28;20039;-73
2021/12/01 02:24:11;;;;;;;0.00;0.00;;;4.90;99.90;;;;;;4993752;28;20042;-73
2021/12/01 02:26:45;;;;;;;;;;;4.90;99.90;;;;;;4993655;28;20113;-73
2021/12/01 02:29:15;;;;;;;0.10;0.10;;;5.00;99.90;;;;;;4994069;28;19949;-72
2021/12/01 02:31:43;;;;;;;0.22;0.22;;;4.90;99.90;;;;;;4994067;28;20026;-72
2021/12/01 02:34:18;;;;;;;0.10;0.10;;;4.90;99.90;;;;;;4993891;28;20121;-72
2021/12/01 02:36:48;;;;;;;0.08;0.08;;;5.00;99.90;;;;;;4993805;28;20081;-71
2021/12/01 02:39:16;;;;;;;0.00;0.00;;;5.00;99.90;;;;;;4992657;28;20423;-71
2021/12/01 02:41:52;;;;;;;0.00;0.00;;;5.00;99.90;;;;;;4993592;28;20104;-72
2021/12/01 02:44:18;;;;;;;0.35;0.35;;;5.00;99.90;;;;;;4993589;28;20107;-71
2021/12/01 02:46:45;;;;;;;0.30;0.30;;;5.00;99.90;;;;;;4992347;28;20042;-71
2021/12/01 02:49:11;;;;;;;1.45;0.55;;;5.00;99.90;;;;;;4992478;28;20034;-71
2021/12/01 02:51:40;;;;;;;0.30;0.30;;;5.00;99.90;;;;;;4993828;28;20145;-71
2021/12/01 02:54:07;;;;;;;0.32;0.32;;;5.10;99.90;;;;;;4992260;28;20038;-72
2021/12/01 02:56:35;;;;;;;0.10;0.10;;;5.10;99.90;;;;;;4993323;28;20039;-71
2021/12/01 02:59:05;;;;;;;0.10;0.10;;;5.10;99.90;;;;;;4993603;28;20034;-72
2021/12/01 03:01:32;;;;;;;0.10;0.10;;;5.10;99.90;;;;;;4993209;28;20041;-72
2021/12/01 03:04:00;;;;;;;0.00;0.00;;;5.10;99.90;;;;;;4992303;28;20030;-72
2021/12/01 03:06:28;;;;;;;0.10;0.10;;;5.10;99.90;;;;;;4993230;28;20035;-71
2021/12/01 03:08:55;;;;;;;0.10;0.10;;;5.10;99.90;;;;;;4992125;28;20038;-71
2021/12/01 03:11:22;;;;;;;0.68;0.68;;;5.10;99.90;;;;;;4992042;28;20034;-71
2021/12/01 03:13:48;;;;;;;0.05;0.05;;;5.20;99.90;;;;;;4991774;28;20041;-72
2021/12/01 03:16:15;;;;;;;0.00;0.00;;;5.20;99.90;;;;;;4975820;28;20026;-72
2021/12/01 03:18:44;;;;;;;0.75;0.70;;;5.20;99.90;;;;;;4992846;28;20591;-72
2021/12/01 03:21:12;;;;;;;1.20;1.10;;;5.20;99.90;;;;;;4991728;28;20034;-71
2021/12/01 03:23:42;;;;;;;0.10;0.10;;;5.20;99.90;;;;;;4993193;28;20041;-71
2021/12/01 03:26:08;;;;;;;0.10;0.10;;;5.20;99.90;;;;;;4992979;28;20434;-71
2021/12/01 03:28:35;;;;;;;1.02;0.38;;;5.20;99.90;;;;;;4993180;28;20041;-72
2021/12/01 03:31:04;;;;;;;0.05;0.05;;;5.20;99.90;;;;;;4975401;28;20513;-72
2021/12/01 03:33:31;;;;;;;0.00;0.00;;;5.20;99.90;;;;;;4993031;28;20069;-72
2021/12/01 03:35:57;;;;;;;0.05;0.05;;;5.20;99.90;;;;;;4991904;28;20038;-71
2021/12/01 03:38:26;;;;;;;0.10;0.10;;;5.30;99.90;;;;;;4993155;28;20113;-72
2021/12/01 03:40:56;;;;;;;0.10;0.10;;;5.30;99.90;;;;;;4991914;28;20057;-72
2021/12/01 03:43:22;;;;;;;0.00;0.00;;;5.30;99.90;;;;;;4992575;28;20027;-72
2021/12/01 03:45:48;;;;;;;0.20;0.20;;;5.40;99.90;;;;;;4991799;28;20046;-72
2021/12/01 03:48:14;;;;;;;0.00;0.00;;;5.30;99.90;;;;;;4991585;28;20030;-72
2021/12/01 03:50:48;;;;;;;0.00;0.00;;;5.40;99.90;;;;;;4991876;28;20038;-72
2021/12/01 03:53:14;;;;;;;0.10;0.10;;;5.50;99.90;;;;;;4991336;28;20077;-72
2021/12/01 03:55:43;;;;;;;0.38;0.38;;;5.50;99.90;;;;;;4991431;28;20487;-72
2021/12/01 03:58:09;;;;;;;0.20;0.20;;;5.50;99.90;;;;;;4991910;28;20100;-72
2021/12/01 04:00:35;;;;;;;0.00;0.00;;;5.60;99.90;;;;;;4992657;28;20038;-71
2021/12/01 04:03:01;;;;;;;0.10;0.10;;;5.60;99.90;;;;;;4991361;28;20030;-72
2021/12/01 04:05:27;;;;;;;0.10;0.10;;;5.60;99.90;;;;;;4991449;28;20026;-70
2021/12/01 04:07:54;;;;;;;0.65;0.65;;;5.60;99.90;;;;;;4992391;28;20034;-71
2021/12/01 04:10:20;;;;;;;0.00;0.00;;;5.60;99.90;;;;;;4991461;28;20041;-71
2021/12/01 04:12:46;;;;;;;0.00;0.00;;;5.60;99.90;;;;;;4991114;28;20066;-70
2021/12/01 04:15:14;;;;;;;0.10;0.10;;;5.70;99.90;;;;;;4991277;28;20434;-71
2021/12/01 04:17:42;;;;;;;0.00;0.00;;;5.70;99.90;;;;;;4992842;28;20050;-71
2021/12/01 04:20:12;;;;;;;0.00;0.00;;;5.70;99.90;;;;;;4992407;28;20058;-71
2021/12/01 04:22:39;;;;;;;0.10;0.10;;;5.60;99.90;;;;;;4991405;28;20034;-71
2021/12/01 04:25:06;;;;;;;0.10;0.10;;;5.60;99.90;;;;;;4974765;28;20042;-72
2021/12/01 04:27:32;;;;;;;0.00;0.00;;;5.60;99.90;;;;;;4991311;28;20383;-72
2021/12/01 04:29:58;;;;;;;0.10;0.10;;;5.60;99.90;;;;;;4991144;28;20041;-72
2021/12/01 04:32:24;;;;;;;0.10;0.10;;;5.50;99.90;;;;;;4975086;28;20030;-72
2021/12/01 04:34:50;;;;;;;0.10;0.10;;;5.50;99.90;;;;;;4992242;28;20034;-72
2021/12/01 04:37:19;;;;;;;0.35;0.35;;;5.50;99.90;;;;;;4993919;28;20383;-72
2021/12/01 04:39:45;;;;;;;0.05;0.05;;;5.50;99.90;;;;;;4995817;28;20080;-72
2021/12/01 04:42:11;;;;;;;0.00;0.00;;;5.50;99.90;;;;;;4995864;28;20117;-72
2021/12/01 04:44:38;;;;;;;0.00;0.00;;;5.40;99.90;;;;;;4995811;28;20129;-72
2021/12/01 04:47:09;;;;;;;0.30;0.30;;;5.40;99.90;;;;;;4994214;28;20121;-72
2021/12/01 04:49:37;;;;;;;0.35;0.35;;;5.40;99.90;;;;;;4995746;28;20037;-72
2021/12/01 04:52:04;;;;;;;0.40;0.40;;;5.30;99.90;;;;;;4994417;28;20507;-72
2021/12/01 04:54:31;;;;;;;0.20;0.20;;;5.30;99.90;;;;;;4994461;28;20479;-72
2021/12/01 04:56:57;;;;;;;0.43;0.43;;;5.30;99.90;;;;;;4994291;28;20033;-71
2021/12/01 04:59:24;;;;;;;0.57;0.57;;;5.30;99.90;;;;;;4993883;28;20026;-71
2021/12/01 05:01:53;;;;;;;0.28;0.28;;;5.40;99.90;;;;;;5010341;28;20491;-72
2021/12/01 05:04:20;;;;;;;0.00;0.00;;;5.40;99.90;;;;;;4995646;28;20655;-70
2021/12/01 05:06:49;;;;;;;0.05;0.05;;;5.30;99.90;;;;;;4995149;28;20117;-68
2021/12/01 05:09:16;;;;;;;0.00;0.00;;;5.30;99.90;;;;;;4978044;28;20557;-68
2021/12/01 05:11:46;;;;;;;0.20;0.20;;;5.40;99.90;;;;;;4995550;28;20030;-68
2021/12/01 05:14:12;;;;;;;0.15;0.15;;;5.40;99.90;;;;;;4978290;28;20380;-68
2021/12/01 05:16:40;;;;;;;0.10;0.10;;;5.40;99.90;;;;;;4995301;28;20054;-67
2021/12/01 05:19:07;;;;;;;0.10;0.10;;;5.50;99.90;;;;;;4995155;28;20109;-67
2021/12/01 05:21:33;;;;;;;0.22;0.22;;;5.50;99.90;;;;;;4995532;28;20418;-64
2021/12/01 05:24:00;;;;;;;0.00;0.00;;;5.60;99.90;;;;;;4995557;28;20038;-67
2021/12/01 05:26:26;;;;;;;0.60;0.60;;;5.60;99.90;;;;;;4994947;28;20037;-67
2021/12/01 05:28:52;;;;;;;0.15;0.15;;;5.70;99.90;;;;;;4994293;28;20034;-67
2021/12/01 05:31:18;;;;;;;0.00;0.00;;;5.70;99.90;;;;;;4993831;28;20069;-67
2021/12/01 05:33:44;;;;;;;0.10;0.10;;;5.70;99.90;;;;;;4994821;28;20034;-65
2021/12/01 05:36:13;;;;;;;0.13;0.13;;;5.80;99.90;;;;;;5010183;28;20080;-68
2021/12/01 05:38:42;;;;;;;0.00;0.00;;;5.80;99.90;;;;;;4994908;28;20118;-68
2021/12/01 05:41:08;;;;;;;0.10;0.10;;;5.90;99.90;;;;;;4994827;28;20080;-64
2021/12/01 05:43:34;;;;;;;0.00;0.00;;;5.90;99.90;;;;;;4993631;28;20125;-65
2021/12/01 05:46:00;;;;;;;0.10;0.10;;;5.90;99.90;;;;;;4994688;28;20049;-67
2021/12/01 05:48:26;;;;;;;0.00;0.00;;;5.90;99.90;;;;;;4992285;28;20129;-67
2021/12/01 05:50:52;;;;;;;0.00;0.00;;;6.00;99.90;;;;;;4993577;28;20065;-68
2021/12/01 05:53:18;;;;;;;0.00;0.00;;;6.00;99.90;;;;;;4994360;28;20070;-68
2021/12/01 05:55:43;;;;;;;0.10;0.10;;;6.00;99.90;;;;;;4994200;28;20132;-68
2021/12/01 05:58:09;;;;;;;0.03;0.03;;;6.10;99.90;;;;;;5009469;28;20608;-66
2021/12/01 06:00:36;;;;;;;0.00;0.00;;;6.20;99.90;;;;;;4994469;28;20034;-67
2021/12/01 06:03:02;;;;;;;0.00;0.00;;;6.20;99.90;;;;;;4994112;28;20069;-66
2021/12/01 06:05:28;;;;;;;0.00;0.00;;;6.30;99.90;;;;;;4994596;28;20038;-66
2021/12/01 06:07:54;;;;;;;0.10;0.10;;;6.40;99.90;;;;;;4994233;28;20038;-67
2021/12/01 06:10:20;;;;;;;0.00;0.00;;;6.50;99.90;;;;;;4993309;28;20026;-67
2021/12/01 06:12:47;;;;;;;0.10;0.10;;;6.50;99.90;;;;;;4994396;28;20046;-65
2021/12/01 06:15:16;;;;;;;0.00;0.00;;;6.50;99.90;;;;;;4992837;28;20563;-66
2021/12/01 06:17:42;;;;;;;0.00;0.00;;;6.60;99.90;;;;;;4994042;28;20030;-65
2021/12/01 06:20:11;;;;;;;0.00;0.00;;;6.60;99.90;;;;;;4993710;28;20038;-66
2021/12/01 06:22:38;;;;;;;0.00;0.00;;;6.60;99.90;;;;;;4994236;28;20030;-65
2021/12/01 06:25:05;;;;;;;0.00;0.00;;;6.70;99.90;;;;;;4992552;28;20048;-66
2021/12/01 06:27:31;;;;;;;0.00;0.00;;;6.60;99.90;;;;;;4993855;28;20034;-67
2021/12/01 06:29:57;;;;;;;0.08;0.08;;;6.70;99.90;;;;;;4992307;28;20041;-67
2021/12/01 06:32:23;;;;;;;0.03;0.03;;;6.70;99.90;;;;;;4992507;28;20073;-68
2021/12/01 06:34:48;;;;;;;0.00;0.00;;;6.70;99.90;;;;;;4993549;28;20034;-67
2021/12/01 06:37:15;;;;;;;0.00;0.00;;;6.60;99.90;;;;;;4992230;28;20109;-67
2021/12/01 06:39:41;;;;;;;0.00;0.00;;;6.50;99.90;;;;;;4993909;28;20061;-67
2021/12/01 06:42:08;;;;;;;0.00;0.00;;;6.40;99.90;;;;;;5008267;28;20061;-67
2021/12/01 06:44:34;;;;;;;2.20;1.17;;;6.40;99.90;;;;;;4993342;28;20047;-68
2021/12/01 06:47:02;;;;;;;0.10;0.10;;;6.30;99.90;;;;;;4993328;28;20038;-66
2021/12/01 06:49:28;;;;;;;0.00;0.00;;;6.20;99.90;;;;;;4993268;28;20126;-67
2021/12/01 06:51:54;;;;;;;0.10;0.10;;;6.20;99.90;;;;;;4992256;28;20069;-67
2021/12/01 06:54:20;;;;;;;0.00;0.00;;;6.10;99.90;;;;;;4992247;28;20026;-66
2021/12/01 06:56:49;;;;;;;0.05;0.05;;;6.20;99.90;;;;;;4993589;28;20026;-68
2021/12/01 06:59:17;;;;;;;0.10;0.10;;;6.10;99.90;;;;;;4993123;28;20031;-66
2021/12/01 07:01:43;;;;;;;0.00;0.00;;;6.20;99.90;;;;;;4992127;28;20475;-67
2021/12/01 07:04:10;;;;;;;0.00;0.00;;;6.20;99.90;;;;;;5008303;28;20061;-67
2021/12/01 07:06:36;;;;;;;0.10;0.10;;;6.20;99.90;;;;;;4993147;28;20061;-66
2021/12/01 07:09:02;;;;;;;0.00;0.00;;;6.30;99.90;;;;;;4992644;28;20058;-65
2021/12/01 07:11:29;;;;;;;0.00;0.00;;;6.30;99.90;;;;;;4991845;28;20027;-65
2021/12/01 07:13:56;;;;;;;0.10;0.10;;;6.30;99.90;;;;;;4991911;28;20030;-66
2021/12/01 07:16:22;;;;;;;0.00;0.00;;;6.40;99.90;;;;;;4991512;28;20121;-66
2021/12/01 07:18:48;;;;;;;0.10;0.10;;;6.40;99.90;;;;;;4993099;28;20030;-66
2021/12/01 07:21:14;;;;;;;0.00;0.00;;;6.40;99.90;;;;;;4993201;28;20057;-67
2021/12/01 07:23:40;;;;;;;0.20;0.20;;;6.40;99.90;;;;;;4992874;28;20085;-66
2021/12/01 07:26:06;;;;;;;0.05;0.05;;;6.40;99.90;;;;;;4991660;28;20030;-66
2021/12/01 07:28:32;;;;;;;0.00;0.00;;;6.40;99.90;;;;;;4991840;28;20376;-66
2021/12/01 07:30:59;;;;;;;0.73;0.73;;;6.40;99.90;;;;;;4992778;28;20026;-67
2021/12/01 07:33:25;;;;;;;0.00;0.00;;;6.40;99.90;;;;;;4993146;28;20041;-66
2021/12/01 07:35:51;;;;;;;0.10;0.10;;;6.40;99.90;;;;;;4993124;28;20038;-66
2021/12/01 07:38:17;;;;;;;0.00;0.00;;;6.40;99.90;;;;;;4991479;28;20459;-66
2021/12/01 07:40:43;;;;;;;0.00;0.00;;;6.40;99.90;;;;;;4992677;28;20030;-66
2021/12/01 07:43:09;;;;;;;0.00;0.00;;;6.40;99.90;;;;;;4993039;28;20026;-68
2021/12/01 07:45:36;;;;;;;0.00;0.00;;;6.40;99.90;;;;;;4991415;28;20061;-67
2021/12/01 07:48:02;;;;;;;0.00;0.00;;;6.40;99.90;;;;;;4992546;28;20034;-67
2021/12/01 07:50:27;;;;;;;0.03;0.03;;;6.40;99.90;;;;;;4991786;28;20458;-67
2021/12/01 07:52:53;;;;;;;0.00;0.00;;;6.40;99.90;;;;;;4992694;28;20121;-66
2021/12/01 07:55:19;;;;;;;0.00;0.00;;;6.30;99.90;;;;;;4991570;28;20038;-66
2021/12/01 07:57:46;;;;;;;3.60;1.85;;;6.30;99.90;;;;;;4992450;28;20118;-66
2021/12/01 08:00:13;;;;;;;0.15;0.15;;;6.30;99.90;;;;;;4991008;28;20030;-66
2021/12/01 08:02:39;;;;;;;0.00;0.00;;;6.30;99.90;;;;;;4991322;28;20046;-66
2021/12/01 08:05:06;;;;;;;0.00;0.00;;;6.20;99.90;;;;;;4992521;28;20434;-66
2021/12/01 08:07:35;;;;;;;0.00;0.00;;;6.20;99.90;;;;;;4991402;28;20101;-66
2021/12/01 08:10:05;;;;;;;0.00;0.00;;;6.20;99.90;;;;;;4992508;28;20558;-66
2021/12/01 08:12:33;;;;;;;0.00;0.00;;;6.20;99.90;;;;;;4994534;28;20034;-66
2021/12/01 08:15:01;;;;;;;0.00;0.00;;;6.30;99.90;;;;;;4996007;28;20035;-65
2021/12/01 08:17:26;;;;;;;0.00;0.00;;;6.30;99.90;;;;;;4996317;28;20109;-66
2021/12/01 08:19:52;;;;;;;0.10;0.10;;;6.30;99.90;;;;;;5011237;28;20459;-66
2021/12/01 08:22:18;;;;;;;0.10;0.10;;;6.30;99.90;;;;;;4996682;28;20053;-68
2021/12/01 08:24:44;;;;;;;0.00;0.00;;;6.30;99.90;;;;;;4996508;28;20038;-67
2021/12/01 08:27:10;;;;;;;0.00;0.00;;;6.40;99.90;;;;;;4996066;28;20502;-67
2021/12/01 08:29:35;;;;;;;0.00;0.00;;;6.40;99.90;;;;;;5011130;28;20089;-65
2021/12/01 08:32:01;;;;;;;0.45;0.45;;;6.40;99.90;;;;;;4994978;28;20034;-66
2021/12/01 08:34:27;;;;;;;0.00;0.00;;;6.30;99.90;;;;;;4995916;28;20076;-65
2021/12/01 08:36:53;;;;;;;0.00;0.00;;;6.40;99.90;;;;;;4996022;28;20519;-65
2021/12/01 08:39:22;;;;;;;0.00;0.00;;;6.40;99.90;;;;;;4994476;28;20038;-67
2021/12/01 08:41:48;;;;;;;0.90;0.47;;;6.50;99.90;;;;;;4996004;28;20479;-67
2021/12/01 08:44:14;;;;;;;0.00;0.00;;;6.40;99.90;;;;;;4995708;28;20057;-67
2021/12/01 08:46:40;;;;;;;0.65;0.65;;;6.40;99.90;;;;;;4995782;28;20038;-67
2021/12/01 08:49:06;;;;;;;0.00;0.00;;;6.40;99.90;;;;;;4995975;28;20038;-67
2021/12/01 08:51:32;;;;;;;0.00;0.00;;;6.40;99.90;;;;;;4994396;28;20046;-67
2021/12/01 08:53:59;;;;;;;0.05;0.05;;;6.50;99.90;;;;;;4995601;28;20026;-67
2021/12/01 08:56:24;;;;;;;0.00;0.00;;;6.50;99.90;;;;;;4995770;28;20041;-67
2021/12/01 08:58:50;;;;;;;0.00;0.00;;;6.40;99.90;;;;;;4995887;28;20113;-67
2021/12/01 09:01:16;;;;;;;0.00;0.00;;;6.50;99.90;;;;;;4995634;28;20058;-67
2021/12/01 09:03:42;;;;;;;0.00;0.00;;;6.40;99.90;;;;;;4995260;28;20034;-67
2021/12/01 09:06:08;;;;;;;0.17;0.17;;;6.40;99.90;;;;;;4995576;28;20077;-66
2021/12/01 09:08:35;;;;;;;0.00;0.00;;;6.50;99.90;;;;;;4995039;28;20046;-70
2021/12/01 09:11:03;;;;;;;0.00;0.00;;;6.50;99.90;;;;;;4978250;28;20065;-67
2021/12/01 09:13:32;;;;;;;0.20;0.20;;;6.50;99.90;;;;;;4994976;28;20030;-67
2021/12/01 09:15:58;;;;;;;0.00;0.00;;;6.60;99.90;;;;;;4995527;28;20022;-67
2021/12/01 09:18:27;;;;;;;0.10;0.10;;;6.60;99.90;;;;;;4995136;28;20042;-67
2021/12/01 09:20:53;;;;;;;0.00;0.00;;;6.60;99.90;;;;;;4994029;28;20030;-67
2021/12/01 09:23:20;;;;;;;0.00;0.00;;;6.60;99.90;;;;;;4993609;28;20042;-67
2021/12/01 09:25:47;;;;;;;0.03;0.03;;;6.70;99.90;;;;;;4994133;28;20507;-66
2021/12/01 09:28:22;;;;;;;0.10;0.10;;;6.70;99.90;;;;;;4994043;28;20045;-67
2021/12/01 09:30:49;;;;;;;0.10;0.10;;;6.80;99.90;;;;;;4978007;28;20120;-67
2021/12/01 09:33:16;;;;;;;0.00;0.00;;;6.80;99.90;;;;;;4994793;28;20041;-68
2021/12/01 09:35:43;;;;;;;0.00;0.00;;;6.90;99.90;;;;;;4994124;28;20093;-67
2021/12/01 09:38:13;;;;;;;0.10;0.10;;;6.90;99.90;;;;;;4993612;28;20041;-67
2021/12/01 09:40:45;;;;;;;0.00;0.00;;;7.00;99.90;;;;;;4993666;28;20117;-67
2021/12/01 09:43:14;;;;;;;0.10;0.10;;;7.00;99.90;;;;;;4994720;28;20509;-68
2021/12/01 09:45:41;;;;;;;0.00;0.00;;;7.00;99.90;;;;;;4995139;28;20042;-67
2021/12/01 09:48:07;;;;;;;0.00;0.00;;;7.00;99.90;;;;;;4993400;28;20442;-67
2021/12/01 09:50:34;;;;;;;0.43;0.43;;;7.10;99.90;;;;;;4994658;28;20116;-68
2021/12/01 09:53:00;;;;;;;0.00;0.00;;;7.10;99.90;;;;;;4994277;28;20121;-67
2021/12/01 09:55:26;;;;;;;0.20;0.20;;;7.10;99.90;;;;;;4994672;28;20113;-67
2021/12/01 09:58:00;;;;;;;0.00;0.00;;;7.20;99.90;;;;;;4994432;28;20374;-67
2021/12/01 10:00:28;;;;;;;0.00;0.00;;;7.30;99.90;;;;;;4994816;28;20502;-68
2021/12/01 10:02:53;;;;;;;0.00;0.00;;;7.40;99.90;;;;;;4992931;28;20022;-68
2021/12/01 10:05:59;;;;;;;0.00;0.00;;;7.40;99.90;;;;;;4994214;28;20049;-68
2021/12/01 10:08:38;;;;;;;0.00;0.00;;;7.60;99.90;;;;;;4993185;28;20034;-68
2021/12/01 10:11:11;;;;;;;0.10;0.10;;;7.60;99.90;;;;;;4994226;28;20022;-69
2021/12/01 10:13:44;;;;;;;0.00;0.00;;;7.70;99.90;;;;;;4993026;28;20415;-68
2021/12/01 10:16:14;;;;;;;0.00;0.00;;;7.80;99.90;;;;;;4994025;28;20510;-68
2021/12/01 10:19:05;;;;;;;0.00;0.00;;;7.80;99.90;;;;;;4994227;28;20472;-68
2021/12/01 10:21:40;;;;;;;0.20;0.20;;;7.90;99.90;;;;;;4994046;28;20068;-68
2021/12/01 10:24:16;;;;;;;0.08;0.08;;;7.90;99.90;;;;;;4992372;28;20495;-68
2021/12/01 10:26:49;;;;;;;0.00;0.00;;;7.90;99.90;;;;;;4992647;28;20088;-68
2021/12/01 10:29:24;;;;;;;0.00;0.00;;;8.00;99.90;;;;;;4992573;28;20491;-68
2021/12/01 10:32:12;;;;;;;0.00;0.00;;;8.00;99.90;;;;;;4994186;28;20034;-69
2021/12/01 10:34:47;;;;;;;0.00;0.00;;;8.00;99.90;;;;;;4992082;28;20034;-69
2021/12/01 10:37:33;;;;;;;0.00;0.00;;;8.00;99.90;;;;;;4993544;28;20033;-69
2021/12/01 10:40:12;;;;;;;0.00;0.00;;;8.00;99.90;;;;;;4992847;28;20037;-69
2021/12/01 10:43:04;;;;;;;0.00;0.00;;;8.00;99.90;;;;;;4993726;28;20146;-69
2021/12/01 10:45:45;;;;;;;0.00;0.00;;;8.10;99.90;;;;;;4992269;28;20055;-68
2021/12/01 10:48:22;;;;;;;0.00;0.00;;;8.00;99.90;;;;;;4993517;28;20043;-68
2021/12/01 10:50:48;;;;;;;0.00;0.00;;;8.10;99.90;;;;;;4993492;28;20038;-68
2021/12/01 10:53:23;;;;;;;0.00;0.00;;;8.10;99.90;;;;;;4993417;28;20049;-68
2021/12/01 10:55:59;;;;;;;0.00;0.00;;;8.10;99.90;;;;;;4991388;28;20038;-69
2021/12/01 10:58:40;;;;;;;0.10;0.10;;;8.10;99.90;;;;;;4993319;28;20034;-69
2021/12/01 11:01:19;;;;;;;;;;;8.20;99.90;;;;;;4992245;28;20494;-69
2021/12/01 11:03:45;;;;;;;0.00;0.00;;;8.10;99.90;;;;;;4992141;28;19914;-69
2021/12/01 11:06:21;;;;;;;0.00;0.00;;;8.10;99.90;;;;;;4991879;28;20034;-69
2021/12/01 11:08:58;;;;;;;0.00;0.00;;;8.20;99.90;;;;;;4976610;28;20042;-70
2021/12/01 11:11:50;;;;;;;0.00;0.00;;;8.20;99.90;;;;;;4976438;28;20479;-70
2021/12/01 11:14:18;;;;;;;0.28;0.28;;;8.20;99.90;;;;;;4991699;28;20053;-69
2021/12/01 11:16:45;;;;;;;0.00;0.00;;;8.20;99.90;;;;;;4992958;28;20072;-67
2021/12/01 11:19:12;;;;;;;0.00;0.00;;;8.20;99.90;;;;;;4993009;28;20561;-65
2021/12/01 11:21:40;;;;;;;0.10;0.10;;;8.20;99.90;;;;;;4992764;28;20493;-65
2021/12/01 11:24:12;;;;;;;0.00;0.00;;;8.20;99.90;;;;;;4993138;28;20038;-66
2021/12/01 11:26:44;;;;;;;0.00;0.00;;;8.20;99.90;;;;;;4991765;28;20042;-67
2021/12/01 11:29:15;;;;;;;4.47;0.90;;;8.20;99.90;;;;;;4992907;28;20089;-69
2021/12/01 11:31:46;;;;;;;0.00;0.00;;;8.20;99.90;;;;;;4991668;28;20039;-68
2021/12/01 11:34:17;;;;;;;0.20;0.20;;;8.20;99.90;;;;;;4992664;28;20070;-70
2021/12/01 11:36:50;;;;;;;0.10;0.10;;;8.20;99.90;;;;;;4993108;28;20035;-66
2021/12/01 11:39:29;;;;;;;0.00;0.00;;;8.30;99.90;;;;;;4992705;28;20128;-68
2021/12/01 11:41:55;;;;;;;0.00;0.00;;;8.30;99.90;;;;;;4992769;28;20081;-68
2021/12/01 11:44:27;;;;;;;0.00;0.00;;;8.30;99.90;;;;;;4992469;28;20065;-67
2021/12/01 11:46:53;;;;;;;0.00;0.00;;;8.30;99.90;;;;;;4995391;28;20030;-68
2021/12/01 11:49:22;;;;;;;0.00;0.00;;;8.30;99.90;;;;;;4996527;28;20033;-68
2021/12/01 11:52:00;;;;;;;0.00;0.00;;;8.30;99.90;;;;;;4995656;28;20060;-68
2021/12/01 11:54:31;;;;;;;0.08;0.08;;;8.30;99.90;;;;;;4995339;28;20105;-68
2021/12/01 11:57:03;;;;;;;0.00;0.00;;;8.30;99.90;;;;;;4995375;28;20070;-68
2021/12/01 11:59:31;;;;;;;0.00;0.00;;;8.30;99.90;;;;;;4996635;28;20034;-68
2021/12/01 12:02:02;;;;;;;0.00;0.00;;;8.30;99.90;;;;;;4996678;28;20026;-69
2021/12/01 12:04:40;;;;;;;0.00;0.00;;;8.30;99.90;;;;;;4996411;28;20486;-69
2021/12/01 12:07:43;;;;;;;0.00;0.00;;;8.30;99.90;;;;;;4996301;28;20089;-68
2021/12/01 12:10:19;;;;;;;0.10;0.10;;;8.30;99.90;;;;;;4999203;28;20148;-68
2021/12/01 12:13:02;;;;;;;0.00;0.00;;;8.20;99.90;;;;;;4996081;28;20034;-68
2021/12/01 12:15:50;;;;;;;0.10;0.10;;;8.20;99.90;;;;;;4996264;28;20051;-68
2021/12/01 12:18:38;;;;;;;0.00;0.00;;;8.20;99.90;;;;;;4995081;28;20088;-69
2021/12/01 12:21:24;;;;;;;0.00;0.00;;;8.30;99.90;;;;;;4996682;28;20459;-69
2021/12/01 12:23:50;;;;;;;0.00;0.00;;;8.30;99.90;;;;;;4995046;28;20038;-68
2021/12/01 12:26:34;;;;;;;0.00;0.00;;;8.30;99.90;;;;;;4994703;28;20049;-68
2021/12/01 12:29:13;;;;;;;0.00;0.00;;;8.40;99.90;;;;;;4994956;28;20077;-68
2021/12/01 12:31:40;;;;;;;0.00;0.00;;;8.40;99.90;;;;;;4995219;28;20120;-69
2021/12/01 12:34:23;;;;;;;0.00;0.00;;;8.40;99.90;;;;;;4995683;28;20386;-68
2021/12/01 12:36:57;;;;;;;0.00;0.00;;;8.40;99.90;;;;;;4994599;28;20073;-68
2021/12/01 12:39:28;;;;;;;0.00;0.00;;;8.50;99.90;;;;;;4995836;28;20120;-69
2021/12/01 12:41:54;;;;;;;;;;;8.40;99.90;;;;;;4996288;28;20088;-67
2021/12/01 12:44:41;;;;;;;0.00;0.00;;;8.50;99.90;;;;;;4995256;28;20000;-68
2021/12/01 12:47:08;;;;;;;0.10;0.10;;;8.50;99.90;;;;;;4995830;28;20035;-68
2021/12/01 12:49:40;;;;;;;0.00;0.00;;;8.50;99.90;;;;;;4995575;28;20478;-68
2021/12/01 12:52:26;;;;;;;0.00;0.00;;;8.50;99.90;;;;;;4995824;28;20442;-68
2021/12/01 12:54:55;;;;;;;0.00;0.00;;;8.50;99.90;;;;;;4995654;28;20026;-68
2021/12/01 12:57:25;;;;;;;0.45;0.45;;;8.50;99.90;;;;;;4994635;28;20034;-68
2021/12/01 13:00:22;;;;;;;0.00;0.00;;;8.60;99.90;;;;;;4995438;28;20475;-69
2021/12/01 13:02:50;;;;;;;0.00;0.00;;;8.50;99.90;;;;;;4995356;28;20042;-68
2021/12/01 13:05:35;;;;;;;0.22;0.22;;;8.50;99.90;;;;;;4994446;28;20035;-69
2021/12/01 13:08:02;;;;;;;0.00;0.00;;;8.50;99.90;;;;;;4995049;28;20497;-69
2021/12/01 13:10:39;;;;;;;0.05;0.05;;;8.50;99.90;;;;;;4995119;28;20502;-68
2021/12/01 13:13:17;;;;;;;0.20;0.20;;;8.50;99.90;;;;;;4995161;28;20121;-68
2021/12/01 13:15:47;;;;;;;0.00;0.00;;;8.50;99.90;;;;;;4978748;28;20387;-69